Time;durP1;ratioP1;P1;durP2;ratioP2;P2;SDS_P1;SDS_P2;PMS_P1;PMS_P2;Temp;Humidity;BMP_temperature;BMP_pressure;BME280_temperature;BME280_humidity;BME280_pressure;Samples;Min_cycle;Max_cycle;Signal;HPM_P1;HPM_P2
2022/07/23 00:00:37;;;;;;;12.95;11.73;;;;;;;;;;5067068;28;20769;-64
2022/07/23 00:03:02;;;;;;;12.88;11.70;;;;;;;;;;5050708;28;20622;-64
2022/07/23 00:05:28;;;;;;;13.52;12.23;;;;;;;;;;5066648;28;20028;-64
2022/07/23 00:07:53;;;;;;;13.52;12.30;;;;;;;;;;5068021;28;20131;-64
2022/07/23 00:10:18;;;;;;;14.20;13.02;;;;;;;;;;5066276;28;20413;-63
2022/07/23 00:12:44;;;;;;;12.52;11.63;;;;;;;;;;5065999;28;20481;-63
2022/07/23 00:15:09;;;;;;;13.93;12.73;;;;;;;;;;5067527;28;20020;-64
2022/07/23 00:17:35;;;;;;;12.68;11.68;;;;;;;;;;5067706;28;20047;-63
2022/07/23 00:20:00;;;;;;;13.23;11.98;;;;;;;;;;5064994;28;20368;-66
2022/07/23 00:22:27;;;;;;;13.65;12.45;;;;;;;;;;5051476;28;20090;-64
2022/07/23 00:24:52;;;;;;;13.48;12.27;;;;;;;;;;5048443;28;20032;-63
2022/07/23 00:27:17;;;;;;;13.63;12.43;;;;;;;;;;5066831;28;20498;-63
2022/07/23 00:29:43;;;;;;;13.68;12.52;;;;;;;;;;5065822;28;20132;-63
2022/07/23 00:32:08;;;;;;;12.73;11.50;;;;;;;;;;5050747;28;20126;-64
2022/07/23 00:34:33;;;;;;;14.25;12.90;;;;;;;;;;5067047;28;20612;-64
2022/07/23 00:36:58;;;;;;;12.93;11.43;;;;;;;;;;5050731;28;20033;-65
2022/07/23 00:39:24;;;;;;;13.98;12.82;;;;;;;;;;5066105;28;20052;-65
2022/07/23 00:41:49;;;;;;;12.70;11.50;;;;;;;;;;5067232;28;20036;-65
2022/07/23 00:44:16;;;;;;;13.23;12.00;;;;;;;;;;5052360;28;20028;-64
2022/07/23 00:46:48;;;;;;;14.27;12.32;;;;;;;;;;5054764;28;20035;-64
2022/07/23 00:49:14;;;;;;;13.07;12.07;;;;;;;;;;5072839;28;20073;-64
2022/07/23 00:51:39;;;;;;;13.77;12.68;;;;;;;;;;5055288;28;20079;-63
2022/07/23 00:54:05;;;;;;;13.55;12.18;;;;;;;;;;5070145;28;20035;-63
2022/07/23 00:56:30;;;;;;;14.18;12.93;;;;;;;;;;5071044;28;20085;-65
2022/07/23 00:58:55;;;;;;;14.38;13.07;;;;;;;;;;5071201;28;20042;-64
2022/07/23 01:01:21;;;;;;;13.13;12.02;;;;;;;;;;5071910;28;20482;-64
2022/07/23 01:03:46;;;;;;;12.93;11.82;;;;;;;;;;5072470;28;20052;-65
2022/07/23 01:06:11;;;;;;;18.10;14.32;;;;;;;;;;5072738;28;20031;-64
2022/07/23 01:08:36;;;;;;;15.48;14.25;;;;;;;;;;5072892;28;20485;-64
2022/07/23 01:11:02;;;;;;;13.63;12.32;;;;;;;;;;5073288;28;20168;-64
2022/07/23 01:13:27;;;;;;;14.80;13.25;;;;;;;;;;5070271;28;20040;-64
2022/07/23 01:15:52;;;;;;;13.05;11.85;;;;;;;;;;5051680;28;20343;-63
2022/07/23 01:18:18;;;;;;;12.10;10.98;;;;;;;;;;5071333;28;20067;-65
2022/07/23 01:20:43;;;;;;;13.23;12.13;;;;;;;;;;5055742;28;20547;-64
2022/07/23 01:23:08;;;;;;;12.30;11.20;;;;;;;;;;5069500;28;20490;-64
2022/07/23 01:25:34;;;;;;;12.15;11.15;;;;;;;;;;5072367;28;20021;-64
2022/07/23 01:27:59;;;;;;;13.00;11.90;;;;;;;;;;5072301;28;20504;-64
2022/07/23 01:30:24;;;;;;;13.95;11.90;;;;;;;;;;5070890;28;20051;-64
2022/07/23 01:32:50;;;;;;;14.00;11.50;;;;;;;;;;5070549;28;20445;-64
2022/07/23 01:35:15;;;;;;;13.45;11.88;;;;;;;;;;5070961;28;20029;-65
2022/07/23 01:37:40;;;;;;;12.50;11.40;;;;;;;;;;5051832;28;20307;-64
2022/07/23 01:40:06;;;;;;;12.50;11.45;;;;;;;;;;5070542;28;20072;-64
2022/07/23 01:42:31;;;;;;;12.38;11.27;;;;;;;;;;5068732;28;20031;-64
2022/07/23 01:44:56;;;;;;;13.07;11.88;;;;;;;;;;5070655;28;20024;-64
2022/07/23 01:47:22;;;;;;;10.75;9.85;;;;;;;;;;5052242;28;20042;-65
2022/07/23 01:49:47;;;;;;;12.50;11.45;;;;;;;;;;5070968;28;20028;-64
2022/07/23 01:52:12;;;;;;;11.88;10.98;;;;;;;;;;5051938;28;20024;-65
2022/07/23 01:54:38;;;;;;;13.10;12.00;;;;;;;;;;5052044;28;20055;-65
2022/07/23 01:57:04;;;;;;;12.20;11.07;;;;;;;;;;5069889;28;20028;-65
2022/07/23 01:59:29;;;;;;;12.32;11.23;;;;;;;;;;5053721;28;20078;-64
2022/07/23 02:01:55;;;;;;;11.50;10.60;;;;;;;;;;5053210;28;20610;-64
2022/07/23 02:04:21;;;;;;;12.50;11.50;;;;;;;;;;5070884;28;20102;-63
2022/07/23 02:06:46;;;;;;;13.25;11.98;;;;;;;;;;5069599;28;20056;-64
2022/07/23 02:09:12;;;;;;;12.35;11.25;;;;;;;;;;5070157;28;20104;-64
2022/07/23 02:11:37;;;;;;;12.50;11.40;;;;;;;;;;5051434;28;20077;-65
2022/07/23 02:14:02;;;;;;;12.48;11.48;;;;;;;;;;5070144;28;20064;-67
2022/07/23 02:16:27;;;;;;;12.98;11.80;;;;;;;;;;5069085;28;20154;-64
2022/07/23 02:18:53;;;;;;;12.63;11.63;;;;;;;;;;5051104;28;20075;-64
2022/07/23 02:21:18;;;;;;;12.65;11.60;;;;;;;;;;5068842;28;20028;-64
2022/07/23 02:23:43;;;;;;;11.98;10.98;;;;;;;;;;5070692;28;20032;-64
2022/07/23 02:26:08;;;;;;;12.75;11.70;;;;;;;;;;5070015;28;20025;-64
2022/07/23 02:28:34;;;;;;;13.07;11.98;;;;;;;;;;5068523;28;20025;-63
2022/07/23 02:30:59;;;;;;;12.43;11.32;;;;;;;;;;5069327;28;20522;-65
2022/07/23 02:33:25;;;;;;;13.48;12.25;;;;;;;;;;5069528;28;20056;-63
2022/07/23 02:35:50;;;;;;;12.85;11.77;;;;;;;;;;5070594;28;20481;-63
2022/07/23 02:38:15;;;;;;;11.80;10.82;;;;;;;;;;5068835;28;20032;-63
2022/07/23 02:40:40;;;;;;;14.30;12.80;;;;;;;;;;5067744;28;20059;-63
2022/07/23 02:43:06;;;;;;;12.63;11.40;;;;;;;;;;5052358;28;20093;-64
2022/07/23 02:45:31;;;;;;;12.57;11.48;;;;;;;;;;5052451;28;20058;-64
2022/07/23 02:47:56;;;;;;;14.60;13.40;;;;;;;;;;5066286;28;20060;-62
2022/07/23 02:50:22;;;;;;;13.25;12.15;;;;;;;;;;5068900;28;20383;-65
2022/07/23 02:52:47;;;;;;;13.68;12.45;;;;;;;;;;5070026;28;20149;-63
2022/07/23 02:55:12;;;;;;;13.63;12.43;;;;;;;;;;5070623;28;20433;-64
2022/07/23 02:57:38;;;;;;;14.38;12.88;;;;;;;;;;5068732;28;20632;-64
2022/07/23 03:00:04;;;;;;;12.77;11.77;;;;;;;;;;5067150;28;20047;-64
2022/07/23 03:02:29;;;;;;;14.23;12.93;;;;;;;;;;5068461;28;20485;-64
2022/07/23 03:04:56;;;;;;;15.38;14.07;;;;;;;;;;5069504;28;20161;-65
2022/07/23 03:07:21;;;;;;;14.05;12.93;;;;;;;;;;5048861;28;20028;-61
2022/07/23 03:09:46;;;;;;;14.57;13.20;;;;;;;;;;5068696;28;20033;-61
2022/07/23 03:12:11;;;;;;;14.75;13.43;;;;;;;;;;5069266;28;20028;-60
2022/07/23 03:14:37;;;;;;;14.98;13.77;;;;;;;;;;5051544;28;20032;-61
2022/07/23 03:17:02;;;;;;;14.95;13.57;;;;;;;;;;5068056;28;20025;-62
2022/07/23 03:19:27;;;;;;;14.45;13.25;;;;;;;;;;5059243;28;20127;-61
2022/07/23 03:21:52;;;;;;;14.75;13.55;;;;;;;;;;5067356;28;20071;-62
2022/07/23 03:24:18;;;;;;;14.75;13.13;;;;;;;;;;5067401;28;20036;-61
2022/07/23 03:26:43;;;;;;;13.35;12.32;;;;;;;;;;5066393;28;20028;-61
2022/07/23 03:29:09;;;;;;;14.48;13.18;;;;;;;;;;5067455;28;20020;-60
2022/07/23 03:31:34;;;;;;;14.57;13.38;;;;;;;;;;5067750;28;20060;-61
2022/07/23 03:34:00;;;;;;;14.38;13.02;;;;;;;;;;5068991;28;20132;-61
2022/07/23 03:36:25;;;;;;;14.43;13.23;;;;;;;;;;5068624;28;20123;-63
2022/07/23 03:38:50;;;;;;;15.27;13.68;;;;;;;;;;5070818;28;20024;-63
2022/07/23 03:41:16;;;;;;;15.32;13.88;;;;;;;;;;5068956;28;20060;-62
2022/07/23 03:43:41;;;;;;;15.32;13.80;;;;;;;;;;5068744;28;20119;-62
2022/07/23 03:46:06;;;;;;;15.15;13.85;;;;;;;;;;5068763;28;20494;-61
2022/07/23 03:48:31;;;;;;;15.80;14.43;;;;;;;;;;5068509;28;20133;-63
2022/07/23 03:50:57;;;;;;;14.93;13.75;;;;;;;;;;5070539;28;20119;-62
2022/07/23 03:53:22;;;;;;;16.40;14.73;;;;;;;;;;5067794;28;20024;-62
2022/07/23 03:55:47;;;;;;;15.45;13.98;;;;;;;;;;5067061;28;20471;-62
2022/07/23 03:58:13;;;;;;;15.38;14.07;;;;;;;;;;5070441;28;20470;-62
2022/07/23 04:00:38;;;;;;;15.55;14.35;;;;;;;;;;5052638;28;20115;-63
2022/07/23 04:03:03;;;;;;;15.95;14.65;;;;;;;;;;5068006;28;20110;-61
2022/07/23 04:05:28;;;;;;;17.42;15.93;;;;;;;;;;5069449;28;20107;-63
2022/07/23 04:07:54;;;;;;;14.98;13.75;;;;;;;;;;5070856;28;20040;-62
2022/07/23 04:10:19;;;;;;;16.20;14.90;;;;;;;;;;5070709;28;20038;-62
2022/07/23 04:12:44;;;;;;;15.85;14.35;;;;;;;;;;5067196;28;20060;-62
2022/07/23 04:15:09;;;;;;;16.27;14.65;;;;;;;;;;5068725;28;20054;-62
2022/07/23 04:17:35;;;;;;;16.90;15.60;;;;;;;;;;5070302;28;20051;-61
2022/07/23 04:20:00;;;;;;;17.77;16.30;;;;;;;;;;5068022;28;20024;-62
2022/07/23 04:22:25;;;;;;;16.50;14.80;;;;;;;;;;5049004;28;20125;-66
2022/07/23 04:24:51;;;;;;;15.45;14.05;;;;;;;;;;5070091;28;20047;-62
2022/07/23 04:27:16;;;;;;;14.55;13.27;;;;;;;;;;5067478;28;20462;-63
2022/07/23 04:29:41;;;;;;;14.82;13.48;;;;;;;;;;5068288;28;20032;-61
2022/07/23 04:32:07;;;;;;;13.52;12.30;;;;;;;;;;5068983;28;20032;-62
2022/07/23 04:34:32;;;;;;;13.82;12.63;;;;;;;;;;5051321;28;20044;-62
2022/07/23 04:36:57;;;;;;;14.07;12.70;;;;;;;;;;5068460;28;20017;-62
2022/07/23 04:39:23;;;;;;;13.95;12.75;;;;;;;;;;5069002;28;20044;-61
2022/07/23 04:41:48;;;;;;;12.95;11.95;;;;;;;;;;5067323;28;20475;-62
2022/07/23 04:44:13;;;;;;;13.18;11.98;;;;;;;;;;5070069;28;20086;-62
2022/07/23 04:46:39;;;;;;;14.10;12.88;;;;;;;;;;5054999;28;20032;-62
2022/07/23 04:49:04;;;;;;;12.70;11.60;;;;;;;;;;5067393;28;20108;-63
2022/07/23 04:51:29;;;;;;;12.55;11.45;;;;;;;;;;5066848;28;20452;-62
2022/07/23 04:53:55;;;;;;;11.57;10.60;;;;;;;;;;5035557;28;20085;-62
2022/07/23 04:56:20;;;;;;;14.80;11.30;;;;;;;;;;5070155;28;20038;-60
2022/07/23 04:58:45;;;;;;;12.02;11.02;;;;;;;;;;5068527;28;20036;-61
2022/07/23 05:01:10;;;;;;;11.85;10.90;;;;;;;;;;5049122;28;20526;-63
2022/07/23 05:03:36;;;;;;;12.02;10.98;;;;;;;;;;5071687;28;20033;-62
2022/07/23 05:06:02;;;;;;;11.70;10.57;;;;;;;;;;5050121;28;20669;-61
2022/07/23 05:08:28;;;;;;;13.75;11.23;;;;;;;;;;5067339;28;20051;-61
2022/07/23 05:10:53;;;;;;;11.30;10.38;;;;;;;;;;5067591;28;20052;-62
2022/07/23 05:13:18;;;;;;;9.38;8.63;;;;;;;;;;5053066;28;20032;-61
2022/07/23 05:15:44;;;;;;;9.55;8.75;;;;;;;;;;5068230;28;20099;-63
2022/07/23 05:18:09;;;;;;;9.13;8.43;;;;;;;;;;5067438;28;20024;-63
2022/07/23 05:20:34;;;;;;;10.95;9.82;;;;;;;;;;5066297;28;20024;-62
2022/07/23 05:22:59;;;;;;;9.05;8.35;;;;;;;;;;5048977;28;20504;-61
2022/07/23 05:25:25;;;;;;;9.70;8.90;;;;;;;;;;5068406;28;20052;-62
2022/07/23 05:27:50;;;;;;;11.82;9.27;;;;;;;;;;5049871;28;20485;-62
2022/07/23 05:30:15;;;;;;;9.77;8.98;;;;;;;;;;5070059;28;20029;-65
2022/07/23 05:32:41;;;;;;;9.40;8.70;;;;;;;;;;5072496;28;20067;-64
2022/07/23 05:35:07;;;;;;;8.73;7.88;;;;;;;;;;5070422;28;20032;-61
2022/07/23 05:37:32;;;;;;;8.23;7.53;;;;;;;;;;5071554;28;20136;-63
2022/07/23 05:40:07;;;;;;;7.72;7.03;;;;;;;;;;5071568;28;20064;-64
2022/07/23 05:42:32;;;;;;;;;;;;;;;;;;5070611;28;20074;-64
2022/07/23 05:44:57;;;;;;;7.90;7.33;;;;;;;;;;5069588;28;20308;-64
2022/07/23 05:47:23;;;;;;;7.93;7.18;;;;;;;;;;5070113;28;20640;-64
2022/07/23 05:49:48;;;;;;;7.82;7.18;;;;;;;;;;5069750;28;20469;-65
2022/07/23 05:52:13;;;;;;;7.75;7.25;;;;;;;;;;5071738;28;20031;-65
2022/07/23 05:54:38;;;;;;;7.60;7.10;;;;;;;;;;5070476;28;20099;-65
2022/07/23 05:57:04;;;;;;;7.32;6.82;;;;;;;;;;5038756;28;20076;-65
2022/07/23 05:59:29;;;;;;;7.47;6.88;;;;;;;;;;5072303;28;20025;-65
2022/07/23 06:01:55;;;;;;;7.78;7.20;;;;;;;;;;5071965;28;20458;-65
2022/07/23 06:04:20;;;;;;;8.65;7.90;;;;;;;;;;5071053;28;20028;-64
2022/07/23 06:06:45;;;;;;;7.93;7.35;;;;;;;;;;5071712;28;20028;-67
2022/07/23 06:09:13;;;;;;;9.73;8.35;;;;;;;;;;5071822;28;20116;-66
2022/07/23 06:11:38;;;;;;;9.00;8.30;;;;;;;;;;5058401;28;20036;-65
2022/07/23 06:14:04;;;;;;;9.50;8.65;;;;;;;;;;5051652;28;20141;-65
2022/07/23 06:16:29;;;;;;;9.88;9.05;;;;;;;;;;5069012;28;20453;-65
2022/07/23 06:18:54;;;;;;;9.05;8.45;;;;;;;;;;5052616;28;20456;-65
2022/07/23 06:21:20;;;;;;;9.35;8.63;;;;;;;;;;5069029;28;20020;-64
2022/07/23 06:23:45;;;;;;;9.73;8.48;;;;;;;;;;5069025;28;20608;-65
2022/07/23 06:26:10;;;;;;;8.35;7.65;;;;;;;;;;5056725;28;20024;-65
2022/07/23 06:28:35;;;;;;;9.70;8.77;;;;;;;;;;5070663;28;20028;-64
2022/07/23 06:31:01;;;;;;;9.65;8.82;;;;;;;;;;5069012;28;20028;-65
2022/07/23 06:33:26;;;;;;;9.52;8.68;;;;;;;;;;5070199;28;20043;-65
2022/07/23 06:35:52;;;;;;;8.98;8.18;;;;;;;;;;5071753;28;20088;-66
2022/07/23 06:38:17;;;;;;;9.70;8.90;;;;;;;;;;5072211;28;20020;-65
2022/07/23 06:40:43;;;;;;;11.55;9.32;;;;;;;;;;5070123;28;20064;-64
2022/07/23 06:43:09;;;;;;;11.90;9.63;;;;;;;;;;5067961;28;20364;-65
2022/07/23 06:45:34;;;;;;;11.07;9.38;;;;;;;;;;5069680;28;20086;-64
2022/07/23 06:48:02;;;;;;;10.10;9.30;;;;;;;;;;5073069;28;20610;-65
2022/07/23 06:50:27;;;;;;;10.13;9.15;;;;;;;;;;5069159;28;20035;-63
2022/07/23 06:52:52;;;;;;;9.57;8.68;;;;;;;;;;5060482;28;20043;-66
2022/07/23 06:55:17;;;;;;;10.70;9.80;;;;;;;;;;5053160;28;20033;-65
2022/07/23 06:57:43;;;;;;;9.57;8.77;;;;;;;;;;5070611;28;20024;-66
2022/07/23 07:00:08;;;;;;;10.40;9.48;;;;;;;;;;5068319;28;20039;-65
2022/07/23 07:02:34;;;;;;;9.68;8.82;;;;;;;;;;5050652;28;20039;-66
2022/07/23 07:04:59;;;;;;;7.40;6.80;;;;;;;;;;5072011;28;20216;-63
2022/07/23 07:07:24;;;;;;;7.50;6.80;;;;;;;;;;5069943;28;20505;-65
2022/07/23 07:09:49;;;;;;;7.80;7.10;;;;;;;;;;5067340;28;20387;-63
2022/07/23 07:12:15;;;;;;;7.75;7.07;;;;;;;;;;5053083;28;20470;-65
2022/07/23 07:14:40;;;;;;;6.97;6.47;;;;;;;;;;5071637;28;20090;-65
2022/07/23 07:17:05;;;;;;;7.95;7.10;;;;;;;;;;5070778;28;20025;-65
2022/07/23 07:19:31;;;;;;;8.38;7.60;;;;;;;;;;5068398;28;20390;-64
2022/07/23 07:21:56;;;;;;;7.20;6.70;;;;;;;;;;5068388;28;20438;-66
2022/07/23 07:24:21;;;;;;;6.68;6.07;;;;;;;;;;5071088;28;20467;-64
2022/07/23 07:26:47;;;;;;;10.20;7.63;;;;;;;;;;5054614;28;20030;-64
2022/07/23 07:29:12;;;;;;;7.35;6.85;;;;;;;;;;5067595;28;20449;-64
2022/07/23 07:31:37;;;;;;;8.65;7.80;;;;;;;;;;5067880;28;20055;-65
2022/07/23 07:34:06;;;;;;;7.00;6.60;;;;;;;;;;5052674;28;20068;-65
2022/07/23 07:36:32;;;;;;;7.70;7.15;;;;;;;;;;5049034;28;20421;-64
2022/07/23 07:38:57;;;;;;;7.50;6.90;;;;;;;;;;5068161;28;20064;-64
2022/07/23 07:41:23;;;;;;;7.32;6.90;;;;;;;;;;5059592;28;20058;-64
2022/07/23 07:43:49;;;;;;;7.40;6.68;;;;;;;;;;5052275;28;20040;-64
2022/07/23 07:46:14;;;;;;;7.65;7.05;;;;;;;;;;5068195;28;20432;-65
2022/07/23 07:48:40;;;;;;;7.45;6.93;;;;;;;;;;5067345;28;20576;-65
2022/07/23 07:51:05;;;;;;;7.82;7.32;;;;;;;;;;5068948;28;20032;-60
2022/07/23 07:53:30;;;;;;;7.90;7.40;;;;;;;;;;5070830;28;20032;-62
2022/07/23 07:55:56;;;;;;;7.75;7.18;;;;;;;;;;5067869;28;20032;-65
2022/07/23 07:58:21;;;;;;;7.13;6.72;;;;;;;;;;5049497;28;20518;-62
2022/07/23 08:00:46;;;;;;;8.30;7.68;;;;;;;;;;5068033;28;20571;-64
2022/07/23 08:03:11;;;;;;;8.05;7.22;;;;;;;;;;5070279;28;20039;-63
2022/07/23 08:05:37;;;;;;;7.50;6.80;;;;;;;;;;5068436;28;20426;-64
2022/07/23 08:08:02;;;;;;;8.43;7.82;;;;;;;;;;5049521;28;20039;-63
2022/07/23 08:10:28;;;;;;;8.00;7.30;;;;;;;;;;5069087;28;20036;-63
2022/07/23 08:12:56;;;;;;;8.27;7.57;;;;;;;;;;5069551;28;20044;-63
2022/07/23 08:15:22;;;;;;;8.80;8.20;;;;;;;;;;5068639;28;20052;-64
2022/07/23 08:17:47;;;;;;;8.18;7.43;;;;;;;;;;5048634;28;20111;-63
2022/07/23 08:20:13;;;;;;;8.65;8.05;;;;;;;;;;5069486;28;20393;-63
2022/07/23 08:23:05;;;;;;;8.27;7.53;;;;;;;;;;5069572;28;20098;-63
2022/07/23 08:25:32;;;;;;;23.83;9.55;;;;;;;;;;5063845;28;20068;-64
2022/07/23 08:27:58;;;;;;;8.13;7.63;;;;;;;;;;5068078;28;20125;-63
2022/07/23 08:30:23;;;;;;;10.00;8.38;;;;;;;;;;5069549;28;20032;-63
2022/07/23 08:32:51;;;;;;;8.63;7.93;;;;;;;;;;5070206;28;20438;-64
2022/07/23 08:35:17;;;;;;;7.78;7.18;;;;;;;;;;5067958;28;20448;-63
2022/07/23 08:37:43;;;;;;;7.55;6.85;;;;;;;;;;5068165;28;20032;-62
2022/07/23 08:40:08;;;;;;;12.70;7.45;;;;;;;;;;5069550;28;20048;-62
2022/07/23 08:42:35;;;;;;;7.97;7.47;;;;;;;;;;5069045;28;20101;-62
2022/07/23 08:45:01;;;;;;;7.95;7.28;;;;;;;;;;5047945;28;20427;-62
2022/07/23 08:47:27;;;;;;;9.27;8.48;;;;;;;;;;5068676;28;20032;-61
2022/07/23 08:49:52;;;;;;;7.78;7.25;;;;;;;;;;5068994;28;20055;-58
2022/07/23 08:52:18;;;;;;;8.30;7.80;;;;;;;;;;5068637;28;20031;-61
2022/07/23 08:54:43;;;;;;;8.20;7.68;;;;;;;;;;5067367;28;20032;-63
2022/07/23 08:57:09;;;;;;;8.65;8.02;;;;;;;;;;5068205;28;20025;-62
2022/07/23 08:59:34;;;;;;;8.32;7.70;;;;;;;;;;5069496;28;20033;-63
2022/07/23 09:02:00;;;;;;;8.65;7.85;;;;;;;;;;5068600;28;20056;-64
2022/07/23 09:04:25;;;;;;;8.63;7.93;;;;;;;;;;5068097;28;20055;-64
2022/07/23 09:06:51;;;;;;;8.23;7.63;;;;;;;;;;5072616;28;20032;-64
2022/07/23 09:09:17;;;;;;;8.57;8.07;;;;;;;;;;5072543;28;20513;-64
2022/07/23 09:11:46;;;;;;;7.78;7.18;;;;;;;;;;5052481;28;20032;-63
2022/07/23 09:14:11;;;;;;;9.05;8.27;;;;;;;;;;5051712;28;20039;-63
2022/07/23 09:16:36;;;;;;;7.82;7.32;;;;;;;;;;5073171;28;20462;-61
2022/07/23 09:19:05;;;;;;;8.07;7.38;;;;;;;;;;5073053;28;20490;-62
2022/07/23 09:21:35;;;;;;;8.70;8.02;;;;;;;;;;5071968;28;20382;-66
2022/07/23 09:24:03;;;;;;;8.48;7.88;;;;;;;;;;5060971;28;20036;-64
2022/07/23 09:26:34;;;;;;;9.45;8.68;;;;;;;;;;5070254;28;20337;-64
2022/07/23 09:28:59;;;;;;;8.55;7.88;;;;;;;;;;5070579;28;20052;-64
2022/07/23 09:31:25;;;;;;;7.90;7.40;;;;;;;;;;5071258;28;20521;-65
2022/07/23 09:33:51;;;;;;;9.02;8.18;;;;;;;;;;5053734;28;20340;-65
2022/07/23 09:36:26;;;;;;;8.45;7.63;;;;;;;;;;5071475;28;20043;-65
2022/07/23 09:38:51;;;;;;;9.25;8.45;;;;;;;;;;5069928;28;20027;-64
2022/07/23 09:41:17;;;;;;;7.75;7.05;;;;;;;;;;5069694;28;20036;-65
2022/07/23 09:43:42;;;;;;;7.72;7.05;;;;;;;;;;5052779;28;20500;-66
2022/07/23 09:46:22;;;;;;;8.43;7.93;;;;;;;;;;5071830;28;20024;-65
2022/07/23 09:48:47;;;;;;;9.38;8.25;;;;;;;;;;5070664;28;20024;-64
2022/07/23 09:51:19;;;;;;;8.38;7.88;;;;;;;;;;5069480;28;20129;-66
2022/07/23 09:53:44;;;;;;;8.35;7.75;;;;;;;;;;5061023;28;20433;-65
2022/07/23 09:56:11;;;;;;;8.63;7.93;;;;;;;;;;5072792;28;20051;-64
2022/07/23 09:58:43;;;;;;;8.85;8.13;;;;;;;;;;5070374;28;20448;-65
2022/07/23 10:01:09;;;;;;;9.88;9.18;;;;;;;;;;5069698;28;20024;-65
2022/07/23 10:03:34;;;;;;;9.15;8.38;;;;;;;;;;5052741;28;20086;-64
2022/07/23 10:05:59;;;;;;;8.73;8.13;;;;;;;;;;5072810;28;20046;-63
2022/07/23 10:08:25;;;;;;;9.60;8.77;;;;;;;;;;5070532;28;20066;-63
2022/07/23 10:10:51;;;;;;;8.55;7.85;;;;;;;;;;5070711;28;20031;-64
2022/07/23 10:15:48;;;;;;;8.45;7.85;;;;;;;;;;5070246;28;20039;-64
2022/07/23 10:18:13;;;;;;;8.63;8.02;;;;;;;;;;5069741;28;20024;-64
2022/07/23 10:20:39;;;;;;;9.27;8.68;;;;;;;;;;5069364;28;20447;-64
2022/07/23 10:23:09;;;;;;;9.40;8.70;;;;;;;;;;5057056;28;20036;-64
2022/07/23 10:25:53;;;;;;;10.38;9.27;;;;;;;;;;5052497;28;20080;-63
2022/07/23 10:28:57;;;;;;;9.40;8.50;;;;;;;;;;5068782;28;20051;-63
2022/07/23 10:31:28;;;;;;;9.63;8.70;;;;;;;;;;4976428;28;20530;-65
2022/07/23 10:33:56;;;;;;;9.73;9.02;;;;;;;;;;4977752;28;20029;-59
2022/07/23 10:36:27;;;;;;;9.60;8.95;;;;;;;;;;4975808;28;20038;-67
2022/07/23 10:38:56;;;;;;;9.45;8.73;;;;;;;;;;4962407;28;20471;-65
2022/07/23 10:41:34;;;;;;;9.63;9.02;;;;;;;;;;4976478;28;20037;-65
2022/07/23 10:44:09;;;;;;;8.63;7.93;;;;;;;;;;4977230;28;20042;-59
2022/07/23 10:49:24;;;;;;;8.88;8.35;;;;;;;;;;4980071;28;20393;-67
2022/07/23 10:52:08;;;;;;;8.73;8.02;;;;;;;;;;4978630;28;20030;-67
2022/07/23 10:54:33;;;;;;;8.55;7.95;;;;;;;;;;4974078;28;20041;-64
2022/07/23 10:56:58;;;;;;;10.25;9.30;;;;;;;;;;4975485;28;20038;-64
2022/07/23 10:59:23;;;;;;;9.75;9.05;;;;;;;;;;4977936;28;20249;-64
2022/07/23 11:01:49;;;;;;;9.13;8.43;;;;;;;;;;4992817;28;20028;-65
2022/07/23 11:04:14;;;;;;;8.50;7.90;;;;;;;;;;5065912;28;20477;-64
2022/07/23 11:06:45;;;;;;;9.05;8.18;;;;;;;;;;5068497;28;20074;-64
2022/07/23 11:09:23;;;;;;;9.48;8.77;;;;;;;;;;5069921;28;20031;-65
2022/07/23 11:11:49;;;;;;;9.75;9.05;;;;;;;;;;5070262;28;20052;-64
2022/07/23 11:14:14;;;;;;;9.82;9.13;;;;;;;;;;5047733;28;20028;-65
2022/07/23 11:16:46;;;;;;;10.48;9.77;;;;;;;;;;5068532;28;20050;-65
2022/07/23 11:19:11;;;;;;;11.38;9.05;;;;;;;;;;5068205;28;20552;-66
2022/07/23 11:21:37;;;;;;;10.00;9.35;;;;;;;;;;5067891;28;20020;-64
2022/07/23 11:24:06;;;;;;;10.60;9.63;;;;;;;;;;5067152;28;20043;-65
2022/07/23 11:26:38;;;;;;;9.93;9.27;;;;;;;;;;5067106;28;20412;-64
2022/07/23 11:29:22;;;;;;;10.38;9.68;;;;;;;;;;5050910;28;20017;-64
2022/07/23 11:31:53;;;;;;;9.48;8.73;;;;;;;;;;5066844;28;20347;-65
2022/07/23 11:34:34;;;;;;;10.45;9.48;;;;;;;;;;5067482;28;20042;-64
2022/07/23 11:36:59;;;;;;;9.32;8.65;;;;;;;;;;5069799;28;20021;-64
2022/07/23 11:39:26;;;;;;;10.55;9.52;;;;;;;;;;5069482;28;20066;-65
2022/07/23 11:41:52;;;;;;;9.68;9.05;;;;;;;;;;5066625;28;20096;-65
2022/07/23 11:44:32;;;;;;;9.55;8.85;;;;;;;;;;5067384;28;20031;-65
2022/07/23 11:46:57;;;;;;;10.73;9.93;;;;;;;;;;5067572;28;20383;-65
2022/07/23 11:49:23;;;;;;;9.80;9.02;;;;;;;;;;5068390;28;20051;-63
2022/07/23 11:52:07;;;;;;;10.35;9.65;;;;;;;;;;5058169;28;20032;-64
2022/07/23 11:54:33;;;;;;;9.37;8.77;;;;;;;;;;5067348;28;20020;-64
2022/07/23 11:56:58;;;;;;;10.23;9.52;;;;;;;;;;5069710;28;20466;-63
2022/07/23 11:59:30;;;;;;;10.90;10.10;;;;;;;;;;5068929;28;20053;-64
2022/07/23 12:01:57;;;;;;;10.75;10.05;;;;;;;;;;5066615;28;20043;-64
2022/07/23 12:04:22;;;;;;;10.40;9.63;;;;;;;;;;5052055;28;20056;-64
2022/07/23 12:06:47;;;;;;;9.95;9.20;;;;;;;;;;5068540;28;20299;-62
2022/07/23 12:09:13;;;;;;;9.45;8.70;;;;;;;;;;5052049;28;20032;-64
2022/07/23 12:11:38;;;;;;;10.38;8.93;;;;;;;;;;5065802;28;20052;-62
2022/07/23 12:14:03;;;;;;;9.68;8.98;;;;;;;;;;5067957;28;20028;-63
2022/07/23 12:16:29;;;;;;;15.90;9.52;;;;;;;;;;5068917;28;20463;-62
2022/07/23 12:18:55;;;;;;;12.13;8.77;;;;;;;;;;5069235;28;21028;-65
2022/07/23 12:21:20;;;;;;;8.90;8.10;;;;;;;;;;5066146;28;20578;-65
2022/07/23 12:23:48;;;;;;;9.00;8.20;;;;;;;;;;5066402;28;20048;-64
2022/07/23 12:26:13;;;;;;;10.45;9.40;;;;;;;;;;5069032;28;20008;-65
2022/07/23 12:28:39;;;;;;;11.65;8.77;;;;;;;;;;5066239;28;20023;-67
2022/07/23 12:31:05;;;;;;;15.02;9.45;;;;;;;;;;5066520;28;20020;-66
2022/07/23 12:33:31;;;;;;;8.77;7.95;;;;;;;;;;5070265;28;20036;-68
2022/07/23 12:35:58;;;;;;;14.55;10.27;;;;;;;;;;5068587;28;20020;-69
2022/07/23 12:38:24;;;;;;;19.38;8.80;;;;;;;;;;5065205;28;20016;-63
2022/07/23 12:40:50;;;;;;;13.75;10.52;;;;;;;;;;5068689;28;20109;-63
2022/07/23 12:43:23;;;;;;;20.20;9.93;;;;;;;;;;5074891;28;20539;-63
2022/07/23 12:45:53;;;;;;;9.65;8.57;;;;;;;;;;5072848;28;20533;-64
2022/07/23 12:48:20;;;;;;;10.40;8.80;;;;;;;;;;5070451;28;20040;-65
2022/07/23 12:50:53;;;;;;;13.77;7.93;;;;;;;;;;5072298;28;20030;-67
2022/07/23 12:53:23;;;;;;;8.13;7.45;;;;;;;;;;5074241;28;20541;-64
2022/07/23 12:55:49;;;;;;;8.63;7.75;;;;;;;;;;5072509;28;20204;-65
2022/07/23 12:58:16;;;;;;;8.95;8.15;;;;;;;;;;5053556;28;20086;-66
2022/07/23 13:00:54;;;;;;;7.25;6.65;;;;;;;;;;5072482;28;20028;-64
2022/07/23 13:03:24;;;;;;;8.10;7.40;;;;;;;;;;5072991;28;20497;-65
2022/07/23 13:05:49;;;;;;;8.15;7.40;;;;;;;;;;5051921;28;20020;-64
2022/07/23 13:08:14;;;;;;;9.88;8.15;;;;;;;;;;5070504;28;20396;-65
2022/07/23 13:10:39;;;;;;;8.70;7.82;;;;;;;;;;5073508;28;20028;-62
2022/07/23 13:13:11;;;;;;;9.25;8.18;;;;;;;;;;5071900;28;20730;-67
2022/07/23 13:15:36;;;;;;;11.77;7.25;;;;;;;;;;5051925;28;20165;-66
2022/07/23 13:18:02;;;;;;;7.38;6.68;;;;;;;;;;5053239;28;20040;-67
2022/07/23 13:20:27;;;;;;;9.18;7.88;;;;;;;;;;5073452;28;20450;-68
2022/07/23 13:22:53;;;;;;;7.47;6.88;;;;;;;;;;5052838;28;20448;-64
2022/07/23 13:25:18;;;;;;;5.13;4.82;;;;;;;;;;5069791;28;20035;-67
2022/07/23 13:27:43;;;;;;;5.95;5.60;;;;;;;;;;5073526;28;20394;-70
2022/07/23 13:30:10;;;;;;;5.47;5.18;;;;;;;;;;5071741;28;20459;-69
2022/07/23 13:32:35;;;;;;;5.38;5.07;;;;;;;;;;5071409;28;20029;-70
2022/07/23 13:35:01;;;;;;;5.30;5.00;;;;;;;;;;5070662;28;20425;-69
2022/07/23 13:37:26;;;;;;;5.68;5.38;;;;;;;;;;5072601;28;20028;-69
2022/07/23 13:39:51;;;;;;;6.10;5.60;;;;;;;;;;5054150;28;20326;-67
2022/07/23 13:42:18;;;;;;;6.32;5.93;;;;;;;;;;5050731;28;20147;-67
2022/07/23 13:44:43;;;;;;;6.22;5.93;;;;;;;;;;5049502;28;20041;-67
2022/07/23 13:47:08;;;;;;;6.68;6.28;;;;;;;;;;5033641;28;20094;-70
2022/07/23 13:49:34;;;;;;;6.90;6.40;;;;;;;;;;5057813;28;20552;-69
2022/07/23 13:51:59;;;;;;;6.38;5.93;;;;;;;;;;5049272;28;20025;-69
2022/07/23 13:54:24;;;;;;;6.55;6.15;;;;;;;;;;5048172;28;20033;-69
2022/07/23 13:56:49;;;;;;;6.00;5.60;;;;;;;;;;5051034;28;20506;-68
2022/07/23 13:59:15;;;;;;;6.88;6.38;;;;;;;;;;5051037;28;20029;-68
2022/07/23 14:01:40;;;;;;;6.00;5.63;;;;;;;;;;5048927;28;20114;-68
2022/07/23 14:04:05;;;;;;;6.10;5.72;;;;;;;;;;5048056;28;20044;-67
2022/07/23 14:06:30;;;;;;;6.07;5.65;;;;;;;;;;5033109;28;20033;-67
2022/07/23 14:08:56;;;;;;;6.85;6.35;;;;;;;;;;5052421;28;20051;-68
2022/07/23 14:11:21;;;;;;;6.38;5.97;;;;;;;;;;5048454;28;20498;-68
2022/07/23 14:13:46;;;;;;;6.28;5.88;;;;;;;;;;5048654;28;20056;-69
2022/07/23 14:16:11;;;;;;;7.00;6.60;;;;;;;;;;5051178;28;20372;-67
2022/07/23 14:18:37;;;;;;;6.65;6.15;;;;;;;;;;5050687;28;20526;-69
2022/07/23 14:21:02;;;;;;;6.72;6.20;;;;;;;;;;5034620;28;20029;-68
2022/07/23 14:23:27;;;;;;;6.03;5.72;;;;;;;;;;5050749;28;20148;-68
2022/07/23 14:25:53;;;;;;;6.90;6.50;;;;;;;;;;5049200;28;20170;-68
2022/07/23 14:28:18;;;;;;;7.82;7.25;;;;;;;;;;5032546;28;20025;-68
2022/07/23 14:30:43;;;;;;;6.53;6.03;;;;;;;;;;5049323;28;20443;-68
2022/07/23 14:33:08;;;;;;;7.57;7.07;;;;;;;;;;5048549;28;20024;-68